Time;durP1;ratioP1;P1;durP2;ratioP2;P2;SDS_P1;SDS_P2;PMS_P1;PMS_P2;Temp;Humidity;BMP_temperature;BMP_pressure;BME280_temperature;BME280_humidity;BME280_pressure;Samples;Min_cycle;Max_cycle;Signal;HPM_P1;HPM_P2
2023/10/28 00:00:44;;;;;;;6.13;3.58;;;11.50;99.90;;;;;;5062046;28;20060;-88
2023/10/28 00:03:10;;;;;;;6.97;2.97;;;11.00;99.90;;;;;;5050996;28;20383;-87
2023/10/28 00:05:36;;;;;;;8.25;3.33;;;11.00;99.90;;;;;;5053594;28;20355;-88
2023/10/28 00:08:03;;;;;;;9.38;3.58;;;11.00;99.90;;;;;;5053234;28;20128;-88
2023/10/28 00:10:30;;;;;;;9.43;3.67;;;11.00;99.90;;;;;;5053577;28;20092;-88
2023/10/28 00:12:56;;;;;;;7.00;3.95;;;11.00;99.90;;;;;;5047086;28;20033;-88
2023/10/28 00:15:24;;;;;;;7.30;3.60;;;11.00;99.90;;;;;;5033786;28;20224;-87
2023/10/28 00:17:50;;;;;;;10.25;3.40;;;11.10;99.90;;;;;;5033274;28;20383;-87
2023/10/28 00:20:17;;;;;;;11.95;3.95;;;11.20;99.90;;;;;;5033059;28;20017;-88
2023/10/28 00:22:47;;;;;;;8.20;3.75;;;11.10;99.90;;;;;;5036870;28;20033;-88
2023/10/28 00:25:13;;;;;;;10.60;4.00;;;11.00;99.90;;;;;;5038685;28;20021;-88
2023/10/28 00:27:40;;;;;;;7.93;3.47;;;11.00;99.90;;;;;;5044259;28;20036;-87
2023/10/28 00:30:07;;;;;;;8.48;3.58;;;12.00;99.90;;;;;;5033542;28;20036;-89
2023/10/28 00:32:33;;;;;;;7.00;4.32;;;11.00;99.90;;;;;;5035890;28;20036;-88
2023/10/28 00:34:59;;;;;;;9.57;4.07;;;11.00;99.90;;;;;;5047887;28;20029;-87
2023/10/28 00:37:26;;;;;;;9.60;4.43;;;11.10;99.90;;;;;;5052437;28;20074;-88
2023/10/28 00:39:52;;;;;;;9.88;3.42;;;11.10;99.90;;;;;;5053897;28;20029;-87
2023/10/28 00:42:18;;;;;;;8.38;4.75;;;11.10;99.90;;;;;;5053671;28;20021;-87
2023/10/28 00:44:44;;;;;;;10.48;4.35;;;11.10;99.90;;;;;;5045508;28;20503;-88
2023/10/28 00:47:12;;;;;;;9.38;5.00;;;11.10;99.90;;;;;;5047432;28;20021;-88
2023/10/28 00:49:40;;;;;;;9.70;3.95;;;11.10;99.90;;;;;;5053263;28;20377;-89
2023/10/28 00:52:05;;;;;;;8.15;4.75;;;11.10;99.90;;;;;;5055996;28;20021;-87
2023/10/28 00:54:32;;;;;;;16.30;5.53;;;11.10;99.90;;;;;;5057927;28;20024;-88
2023/10/28 00:56:58;;;;;;;15.75;4.55;;;11.10;99.90;;;;;;5054693;28;20096;-88
2023/10/28 00:59:27;;;;;;;13.63;5.07;;;12.10;99.90;;;;;;5053278;28;20128;-87
2023/10/28 01:01:53;;;;;;;10.75;5.40;;;11.10;99.90;;;;;;5053814;28;20025;-88
2023/10/28 01:04:19;;;;;;;16.50;5.47;;;11.10;99.90;;;;;;5052834;28;20570;-87
2023/10/28 01:06:45;;;;;;;11.05;5.35;;;11.20;99.90;;;;;;5053294;28;20100;-88
2023/10/28 01:09:11;;;;;;;13.82;5.80;;;11.20;99.90;;;;;;5053175;28;20059;-88
2023/10/28 01:11:40;;;;;;;11.50;5.65;;;11.20;99.90;;;;;;5037595;28;20053;-88
2023/10/28 01:14:06;;;;;;;14.75;5.97;;;11.20;99.90;;;;;;5033085;28;20048;-87
2023/10/28 01:16:35;;;;;;;11.55;4.90;;;11.30;99.90;;;;;;5032973;28;20104;-88
2023/10/28 01:19:00;;;;;;;16.17;6.15;;;11.30;99.90;;;;;;5033089;28;20076;-88
2023/10/28 01:21:26;;;;;;;17.52;6.85;;;11.30;99.90;;;;;;5032840;28;20018;-87
2023/10/28 01:23:54;;;;;;;14.60;6.35;;;11.30;99.90;;;;;;5039855;28;20025;-90
2023/10/28 01:26:20;;;;;;;14.93;6.22;;;11.30;99.90;;;;;;5033340;28;20026;-89
2023/10/28 01:28:46;;;;;;;15.50;6.57;;;11.30;99.90;;;;;;5033383;28;20532;-88
2023/10/28 01:31:12;;;;;;;13.82;6.80;;;11.30;99.90;;;;;;5033327;28;20054;-87
2023/10/28 01:33:38;;;;;;;12.75;5.90;;;11.20;99.90;;;;;;5032571;28;20057;-88
2023/10/28 01:36:04;;;;;;;13.02;6.50;;;11.30;99.90;;;;;;5034807;28;20072;-89
2023/10/28 01:38:30;;;;;;;18.42;6.93;;;11.40;99.90;;;;;;5034604;28;20034;-90
2023/10/28 01:40:57;;;;;;;13.75;7.35;;;11.90;99.90;;;;;;5036187;28;20026;-89
2023/10/28 01:43:22;;;;;;;13.25;6.60;;;11.40;99.90;;;;;;5039479;28;20184;-89
2023/10/28 01:45:48;;;;;;;19.42;7.85;;;11.40;99.90;;;;;;5049787;28;20481;-89
2023/10/28 01:48:14;;;;;;;11.18;6.78;;;11.40;99.90;;;;;;5067377;28;20033;-89
2023/10/28 01:50:41;;;;;;;13.15;7.32;;;11.40;99.90;;;;;;5066984;28;20029;-89
2023/10/28 01:53:07;;;;;;;15.85;7.55;;;11.50;99.90;;;;;;5058696;28;20127;-90
2023/10/28 01:55:32;;;;;;;14.80;7.20;;;11.50;99.90;;;;;;5056652;28;20104;-89
2023/10/28 01:57:58;;;;;;;19.08;8.77;;;11.90;99.90;;;;;;5047572;28;20028;-88
2023/10/28 02:00:26;;;;;;;20.90;7.80;;;11.50;99.90;;;;;;5055811;28;20083;-88
2023/10/28 02:02:52;;;;;;;16.65;8.52;;;11.50;99.90;;;;;;5056293;28;20459;-88
2023/10/28 02:05:18;;;;;;;13.32;7.50;;;11.40;99.90;;;;;;5056149;28;20017;-88
2023/10/28 02:07:45;;;;;;;10.88;7.32;;;11.50;99.90;;;;;;5056064;28;20112;-89
2023/10/28 02:10:11;;;;;;;19.67;8.18;;;11.50;99.90;;;;;;5052370;28;20358;-87
2023/10/28 02:12:37;;;;;;;16.70;7.20;;;12.60;99.90;;;;;;5044758;28;20052;-88
2023/10/28 02:15:04;;;;;;;13.77;7.10;;;11.50;99.90;;;;;;5035559;28;20116;-89
2023/10/28 02:17:30;;;;;;;14.02;7.63;;;11.50;99.90;;;;;;5042397;28;20121;-87
2023/10/28 02:19:56;;;;;;;14.23;6.70;;;11.50;99.90;;;;;;5038615;28;20508;-89
2023/10/28 02:22:22;;;;;;;13.80;7.30;;;11.50;99.90;;;;;;5039217;28;20021;-88
2023/10/28 02:24:48;;;;;;;17.00;7.93;;;11.50;99.90;;;;;;5055284;28;20106;-87
2023/10/28 02:27:13;;;;;;;17.55;7.15;;;11.50;99.90;;;;;;5056044;28;20033;-89
2023/10/28 02:29:39;;;;;;;15.13;7.13;;;11.50;99.90;;;;;;5054953;28;20198;-88
2023/10/28 02:32:08;;;;;;;18.27;7.20;;;11.50;99.90;;;;;;5052916;28;20024;-89
2023/10/28 02:34:34;;;;;;;12.63;6.50;;;11.50;99.90;;;;;;5052965;28;20025;-88
2023/10/28 02:37:00;;;;;;;19.58;7.88;;;11.50;99.90;;;;;;5055622;28;20067;-89
2023/10/28 02:39:26;;;;;;;16.83;7.07;;;11.50;99.90;;;;;;5055732;28;20021;-89
2023/10/28 02:41:55;;;;;;;18.05;7.88;;;11.50;99.90;;;;;;5057497;28;20025;-89
2023/10/28 02:44:21;;;;;;;19.98;8.43;;;11.50;99.90;;;;;;5064173;28;20022;-88
2023/10/28 02:46:46;;;;;;;21.05;7.00;;;11.90;99.90;;;;;;5046007;28;20028;-89
2023/10/28 02:49:12;;;;;;;8.82;6.22;;;11.50;99.90;;;;;;5037431;28;20028;-89
2023/10/28 02:51:38;;;;;;;17.63;7.32;;;11.50;99.90;;;;;;5036359;28;20026;-89
2023/10/28 02:54:04;;;;;;;17.17;7.80;;;11.50;99.90;;;;;;5035950;28;20037;-89
2023/10/28 02:56:30;;;;;;;19.02;7.80;;;11.50;99.90;;;;;;5043504;28;20029;-89
2023/10/28 02:58:57;;;;;;;13.70;7.10;;;11.50;99.90;;;;;;5044896;28;20485;-89
2023/10/28 03:01:23;;;;;;;12.25;7.50;;;11.50;99.90;;;;;;5039645;28;20033;-88
2023/10/28 03:03:49;;;;;;;17.35;7.50;;;12.00;99.90;;;;;;5047813;28;20052;-87
2023/10/28 03:06:14;;;;;;;10.23;6.82;;;11.60;99.90;;;;;;5051465;28;20085;-86
2023/10/28 03:08:41;;;;;;;15.82;7.10;;;11.80;99.90;;;;;;5058226;28;20528;-87
2023/10/28 03:11:07;;;;;;;12.70;6.80;;;11.50;99.90;;;;;;5050053;28;20029;-87
2023/10/28 03:13:32;;;;;;;12.38;7.57;;;11.50;99.90;;;;;;5038541;28;20382;-87
2023/10/28 03:15:58;;;;;;;10.30;7.20;;;11.60;99.90;;;;;;5050625;28;20029;-86
2023/10/28 03:18:24;;;;;;;12.65;7.90;;;11.50;99.90;;;;;;5058483;28;20033;-89
2023/10/28 03:20:50;;;;;;;11.70;7.28;;;11.50;99.90;;;;;;5058936;28;20037;-88
2023/10/28 03:23:16;;;;;;;12.02;9.07;;;11.50;99.90;;;;;;5052338;28;20028;-87
2023/10/28 03:25:42;;;;;;;11.15;10.00;;;12.10;99.90;;;;;;5038946;28;20022;-86
2023/10/28 03:28:08;;;;;;;11.95;10.55;;;11.40;99.90;;;;;;5034967;28;20033;-88
2023/10/28 03:30:34;;;;;;;13.18;11.18;;;11.30;99.90;;;;;;5034395;28;20113;-87
2023/10/28 03:33:00;;;;;;;13.27;10.63;;;11.30;99.90;;;;;;5047453;28;20115;-88
2023/10/28 03:35:26;;;;;;;14.30;11.32;;;11.30;99.90;;;;;;5039862;28;20124;-87
2023/10/28 03:37:52;;;;;;;12.20;10.43;;;11.30;99.90;;;;;;5041687;28;20074;-88
2023/10/28 03:40:18;;;;;;;11.65;10.43;;;11.30;99.90;;;;;;5035006;28;20104;-88
2023/10/28 03:42:44;;;;;;;11.73;10.52;;;11.30;99.90;;;;;;5038369;28;20040;-88
2023/10/28 03:45:10;;;;;;;11.80;8.63;;;11.30;99.90;;;;;;5036341;28;20040;-88
2023/10/28 03:47:38;;;;;;;11.90;7.85;;;11.30;99.90;;;;;;5035625;28;20018;-87
2023/10/28 03:50:04;;;;;;;10.98;8.05;;;11.40;99.90;;;;;;5034681;28;20112;-88
2023/10/28 03:52:30;;;;;;;9.48;7.05;;;11.30;99.90;;;;;;5034431;28;20022;-87
2023/10/28 03:54:55;;;;;;;9.20;6.22;;;11.40;99.90;;;;;;5036373;28;20039;-87
2023/10/28 03:57:21;;;;;;;6.60;5.70;;;12.20;99.90;;;;;;5052530;28;20075;-89
2023/10/28 03:59:48;;;;;;;8.93;6.38;;;11.40;99.90;;;;;;5055767;28;20021;-89
2023/10/28 04:02:14;;;;;;;8.18;5.82;;;11.30;99.90;;;;;;5054575;28;20425;-87
2023/10/28 04:04:40;;;;;;;8.25;4.80;;;11.40;99.90;;;;;;5052590;28;20029;-88
2023/10/28 04:07:05;;;;;;;7.35;3.88;;;11.40;99.90;;;;;;5047594;28;20029;-86
2023/10/28 04:09:31;;;;;;;5.88;3.67;;;11.40;99.90;;;;;;5040925;28;20426;-87
2023/10/28 04:12:00;;;;;;;6.00;3.55;;;11.30;99.90;;;;;;5034874;28;20030;-88
2023/10/28 04:14:25;;;;;;;8.38;4.53;;;11.40;99.90;;;;;;5060249;28;20037;-87
2023/10/28 04:16:51;;;;;;;4.80;2.92;;;11.40;99.90;;;;;;5058988;28;20029;-89
2023/10/28 04:19:17;;;;;;;6.25;3.20;;;11.40;99.90;;;;;;5053934;28;20166;-87
2023/10/28 04:21:43;;;;;;;7.93;3.53;;;11.40;99.90;;;;;;5053140;28;20028;-87
2023/10/28 04:24:09;;;;;;;11.23;3.47;;;11.40;99.90;;;;;;5053652;28;20024;-88
2023/10/28 04:26:35;;;;;;;4.65;2.80;;;11.40;99.90;;;;;;5053145;28;20029;-88
2023/10/28 04:29:00;;;;;;;9.05;3.35;;;11.40;99.90;;;;;;5040224;28;20025;-84
2023/10/28 04:31:29;;;;;;;7.20;3.45;;;11.30;99.90;;;;;;5054114;28;20025;-88
2023/10/28 04:33:55;;;;;;;4.57;3.45;;;11.30;99.90;;;;;;5055004;28;20033;-88
2023/10/28 04:36:21;;;;;;;9.73;3.25;;;11.30;99.90;;;;;;5052964;28;20052;-88
2023/10/28 04:38:47;;;;;;;6.15;3.20;;;11.40;99.90;;;;;;5048346;28;20086;-88
2023/10/28 04:41:13;;;;;;;9.13;3.35;;;11.50;99.90;;;;;;5053202;28;20029;-88
2023/10/28 04:43:39;;;;;;;8.45;3.70;;;11.40;99.90;;;;;;5053629;28;20032;-87
2023/10/28 04:46:05;;;;;;;11.73;3.80;;;11.40;99.90;;;;;;5056227;28;20380;-88
2023/10/28 04:48:32;;;;;;;5.75;3.30;;;11.40;99.90;;;;;;5052084;28;20033;-88
2023/10/28 04:50:57;;;;;;;8.57;3.08;;;11.40;99.90;;;;;;5038361;28;20040;-88
2023/10/28 04:53:23;;;;;;;6.05;3.13;;;11.40;99.90;;;;;;5032844;28;20041;-87
2023/10/28 04:55:49;;;;;;;5.53;3.33;;;11.40;99.90;;;;;;5033495;28;20101;-88
2023/10/28 04:58:15;;;;;;;5.78;3.40;;;11.40;99.90;;;;;;5036041;28;20111;-88
2023/10/28 05:00:41;;;;;;;6.53;3.63;;;11.50;99.90;;;;;;5033285;28;20025;-88
2023/10/28 05:03:19;;;;;;;6.38;4.57;;;11.50;99.90;;;;;;5033147;28;20029;-86
2023/10/28 05:05:46;;;;;;;6.93;3.83;;;12.00;99.90;;;;;;5033027;28;20022;-88
2023/10/28 05:08:11;;;;;;;9.25;4.40;;;11.50;99.90;;;;;;5033212;28;20117;-88
2023/10/28 05:10:37;;;;;;;10.45;5.07;;;11.50;99.90;;;;;;5034787;28;20104;-87
2023/10/28 05:13:03;;;;;;;9.60;4.95;;;11.90;99.90;;;;;;5040621;28;20198;-89
2023/10/28 05:15:29;;;;;;;7.88;4.50;;;11.50;99.90;;;;;;5057305;28;20029;-87
2023/10/28 05:17:54;;;;;;;6.97;4.10;;;12.00;99.90;;;;;;5059223;28;20098;-88
2023/10/28 05:20:21;;;;;;;9.13;3.70;;;11.50;99.90;;;;;;5059520;28;20108;-88
2023/10/28 05:22:46;;;;;;;7.03;4.47;;;11.50;99.90;;;;;;5056346;28;20021;-88
2023/10/28 05:25:12;;;;;;;8.23;4.93;;;11.50;99.90;;;;;;5049140;28;20056;-89
2023/10/28 05:27:38;;;;;;;6.90;4.22;;;11.50;99.90;;;;;;5041018;28;20030;-88
2023/10/28 05:30:04;;;;;;;16.98;4.28;;;12.00;99.90;;;;;;5039968;28;20025;-88
2023/10/28 05:32:30;;;;;;;6.38;4.15;;;11.50;99.90;;;;;;5038893;28;20083;-88
2023/10/28 05:34:56;;;;;;;7.72;3.95;;;11.60;99.90;;;;;;5039959;28;20033;-87
2023/10/28 05:37:22;;;;;;;6.53;3.00;;;11.50;99.90;;;;;;5047439;28;20045;-88
2023/10/28 05:39:48;;;;;;;6.72;4.00;;;11.50;99.90;;;;;;5059524;28;20162;-88
2023/10/28 05:42:17;;;;;;;7.93;3.28;;;11.50;99.90;;;;;;5059525;28;20029;-88
2023/10/28 05:44:43;;;;;;;9.40;3.95;;;11.50;99.90;;;;;;5059474;28;20032;-88
2023/10/28 05:47:11;;;;;;;6.53;3.60;;;11.50;99.90;;;;;;5057113;28;20017;-87
2023/10/28 05:49:38;;;;;;;10.55;3.55;;;11.50;99.90;;;;;;5049628;28;20037;-89
2023/10/28 05:52:04;;;;;;;9.68;3.97;;;11.50;99.90;;;;;;5041506;28;20502;-88
2023/10/28 05:54:31;;;;;;;5.63;3.22;;;11.40;99.90;;;;;;5059111;28;20032;-88
2023/10/28 05:56:57;;;;;;;4.55;3.10;;;11.40;99.90;;;;;;5059917;28;20021;-87
2023/10/28 05:59:22;;;;;;;10.23;3.70;;;11.50;99.90;;;;;;5064998;28;20071;-87
2023/10/28 06:01:48;;;;;;;10.65;4.13;;;11.40;99.90;;;;;;5055774;28;20029;-90
2023/10/28 06:04:14;;;;;;;7.78;3.88;;;11.40;99.90;;;;;;5040209;28;20434;-88
2023/10/28 06:06:40;;;;;;;10.32;3.70;;;11.40;99.90;;;;;;5050293;28;20037;-87
2023/10/28 06:09:05;;;;;;;12.27;4.47;;;11.40;99.90;;;;;;5059352;28;20056;-87
2023/10/28 06:11:31;;;;;;;14.60;5.22;;;11.40;99.90;;;;;;5065578;28;20040;-87
2023/10/28 06:13:56;;;;;;;4.90;3.53;;;11.50;99.90;;;;;;5065541;28;20048;-86
2023/10/28 06:16:22;;;;;;;11.13;4.05;;;11.40;99.90;;;;;;5059682;28;20021;-87
2023/10/28 06:18:48;;;;;;;9.20;4.20;;;11.50;99.90;;;;;;5058829;28;20056;-86
2023/10/28 06:21:14;;;;;;;9.70;4.97;;;11.50;99.90;;;;;;5066263;28;20021;-87
2023/10/28 06:23:40;;;;;;;11.35;4.28;;;11.50;99.90;;;;;;5046686;28;20039;-87
2023/10/28 06:26:10;;;;;;;9.98;5.07;;;11.50;99.90;;;;;;5053291;28;20022;-87
2023/10/28 06:28:37;;;;;;;6.80;3.72;;;11.50;99.90;;;;;;5047808;28;20056;-86
2023/10/28 06:31:02;;;;;;;10.25;3.75;;;11.50;99.90;;;;;;5044465;28;20018;-86
2023/10/28 06:33:28;;;;;;;10.27;4.60;;;11.50;99.90;;;;;;5044174;28;20064;-85
2023/10/28 06:35:54;;;;;;;8.43;3.92;;;11.50;99.90;;;;;;5043754;28;20049;-87
2023/10/28 06:38:20;;;;;;;10.00;3.60;;;11.50;99.90;;;;;;5049758;28;20032;-87
2023/10/28 06:40:49;;;;;;;13.85;4.32;;;11.50;99.90;;;;;;5047168;28;20017;-87
2023/10/28 06:43:15;;;;;;;6.93;3.20;;;11.50;99.90;;;;;;5043663;28;20033;-86
2023/10/28 06:45:41;;;;;;;8.52;3.50;;;11.50;99.90;;;;;;5046417;28;20048;-86
2023/10/28 06:48:07;;;;;;;7.60;3.25;;;11.50;99.90;;;;;;5045739;28;20025;-87
2023/10/28 06:50:33;;;;;;;13.15;4.82;;;11.70;99.90;;;;;;5043673;28;20013;-86
2023/10/28 06:52:59;;;;;;;6.88;3.17;;;11.50;99.90;;;;;;5047095;28;20040;-86
2023/10/28 06:55:26;;;;;;;10.82;3.55;;;11.50;99.90;;;;;;5049679;28;20089;-88
2023/10/28 06:57:52;;;;;;;5.63;2.60;;;11.50;99.90;;;;;;5041849;28;20477;-88
2023/10/28 07:00:21;;;;;;;7.40;3.03;;;11.50;99.90;;;;;;5050980;28;20099;-88
2023/10/28 07:02:46;;;;;;;6.70;3.25;;;11.60;99.90;;;;;;5040577;28;20492;-85
2023/10/28 07:05:14;;;;;;;9.85;3.10;;;11.50;99.90;;;;;;5047058;28;20033;-89
2023/10/28 07:07:39;;;;;;;12.80;3.03;;;11.50;99.90;;;;;;5042214;28;20521;-88
2023/10/28 07:10:06;;;;;;;5.15;2.63;;;11.50;99.90;;;;;;5052104;28;20031;-88
2023/10/28 07:12:32;;;;;;;5.57;2.65;;;11.50;99.90;;;;;;5054571;28;20044;-88
2023/10/28 07:14:58;;;;;;;9.68;3.35;;;11.60;99.90;;;;;;5056069;28;20029;-90
2023/10/28 07:17:24;;;;;;;7.78;3.55;;;11.60;99.90;;;;;;5052280;28;20024;-87
2023/10/28 07:19:50;;;;;;;8.65;3.13;;;11.60;99.90;;;;;;5054753;28;20017;-88
2023/10/28 07:22:20;;;;;;;9.10;3.30;;;11.60;99.90;;;;;;5052652;28;20021;-88
2023/10/28 07:24:49;;;;;;;9.40;2.92;;;11.60;99.90;;;;;;5054536;28;20024;-89
2023/10/28 07:27:15;;;;;;;10.30;3.15;;;11.70;99.90;;;;;;5054254;28;20048;-87
2023/10/28 07:29:40;;;;;;;7.28;2.78;;;12.50;99.90;;;;;;5053734;28;20033;-88
2023/10/28 07:32:06;;;;;;;7.68;2.90;;;11.60;99.90;;;;;;5053347;28;20024;-91
2023/10/28 07:34:32;;;;;;;11.55;3.55;;;11.70;99.90;;;;;;5052864;28;20453;-89
2023/10/28 07:37:04;;;;;;;10.43;2.47;;;11.70;99.90;;;;;;5054639;28;20128;-88
2023/10/28 07:39:30;;;;;;;6.70;2.80;;;11.60;99.90;;;;;;5042199;28;20053;-89
2023/10/28 07:41:56;;;;;;;8.60;3.15;;;11.60;99.90;;;;;;5052041;28;20108;-86
2023/10/28 07:44:22;;;;;;;7.05;2.47;;;11.70;99.90;;;;;;5052882;28;20052;-84
2023/10/28 07:46:48;;;;;;;10.88;3.50;;;11.70;99.90;;;;;;5053389;28;20099;-88
2023/10/28 07:49:13;;;;;;;7.53;2.83;;;12.30;99.90;;;;;;5054364;28;20029;-88
2023/10/28 07:51:40;;;;;;;9.00;2.97;;;11.60;99.90;;;;;;5058711;28;20056;-87
2023/10/28 07:54:06;;;;;;;10.60;2.80;;;11.70;99.90;;;;;;5043339;28;20481;-87
2023/10/28 07:56:33;;;;;;;6.95;3.20;;;11.60;99.90;;;;;;5051900;28;20120;-86
2023/10/28 07:59:01;;;;;;;9.40;3.35;;;11.70;99.90;;;;;;5033315;28;20049;-85
2023/10/28 08:01:28;;;;;;;7.13;3.85;;;11.70;99.90;;;;;;5037705;28;20432;-87
2023/10/28 08:03:55;;;;;;;10.93;2.85;;;11.80;99.90;;;;;;5045956;28;20140;-86
2023/10/28 08:06:21;;;;;;;7.32;3.38;;;11.60;99.90;;;;;;5044053;28;20017;-87
2023/10/28 08:08:46;;;;;;;9.63;3.47;;;11.60;99.90;;;;;;5035048;28;20033;-84
2023/10/28 08:11:19;;;;;;;8.82;3.03;;;11.60;99.90;;;;;;5052186;28;20059;-86
2023/10/28 08:13:44;;;;;;;15.52;3.13;;;11.70;99.90;;;;;;5050437;28;20175;-86
2023/10/28 08:16:11;;;;;;;13.60;2.75;;;11.70;99.90;;;;;;5055112;28;20063;-86
2023/10/28 08:18:37;;;;;;;6.30;2.53;;;11.80;99.90;;;;;;5053359;28;20108;-86
2023/10/28 08:21:03;;;;;;;10.90;2.65;;;11.80;99.90;;;;;;5053808;28;20114;-92
2023/10/28 08:23:29;;;;;;;8.70;2.50;;;11.80;99.90;;;;;;5055211;28;20031;-90
2023/10/28 08:25:58;;;;;;;6.47;2.65;;;11.90;99.90;;;;;;5054591;28;20091;-90
2023/10/28 08:28:26;;;;;;;7.70;3.55;;;11.90;99.90;;;;;;5053428;28;20028;-90
2023/10/28 08:30:53;;;;;;;13.30;3.13;;;12.20;99.90;;;;;;5045112;28;20022;-91
2023/10/28 08:33:22;;;;;;;10.20;3.10;;;11.90;99.90;;;;;;5052569;28;20120;-89
2023/10/28 08:35:47;;;;;;;10.68;2.92;;;12.00;99.90;;;;;;5053700;28;20045;-85
2023/10/28 08:38:16;;;;;;;7.93;3.03;;;12.00;99.90;;;;;;5037664;28;20566;-86
2023/10/28 08:40:50;;;;;;;7.47;2.45;;;12.00;99.90;;;;;;5052254;28;20464;-84
2023/10/28 08:43:17;;;;;;;7.22;2.80;;;12.00;99.90;;;;;;5050518;28;20112;-84
2023/10/28 08:45:45;;;;;;;11.10;2.83;;;12.40;99.90;;;;;;5043921;28;20029;-86
2023/10/28 08:48:20;;;;;;;9.23;2.72;;;12.10;99.90;;;;;;5035679;28;20123;-88
2023/10/28 08:50:50;;;;;;;8.40;3.25;;;12.60;99.90;;;;;;5049952;28;20032;-86
2023/10/28 08:53:18;;;;;;;6.07;3.00;;;12.10;99.90;;;;;;5039574;28;20163;-88
2023/10/28 08:55:47;;;;;;;14.02;3.55;;;12.30;99.90;;;;;;5042048;28;20447;-86
2023/10/28 08:58:14;;;;;;;5.70;2.70;;;12.20;99.90;;;;;;5050315;28;20033;-86
2023/10/28 09:00:40;;;;;;;9.48;3.05;;;13.20;99.90;;;;;;5049652;28;20116;-88
2023/10/28 09:03:06;;;;;;;6.18;2.83;;;12.30;99.90;;;;;;5051496;28;20126;-90
2023/10/28 09:05:31;;;;;;;9.82;2.60;;;12.30;99.90;;;;;;5051163;28;20024;-87
2023/10/28 09:07:57;;;;;;;7.30;2.97;;;12.30;99.90;;;;;;5052308;28;20025;-88
2023/10/28 09:10:24;;;;;;;9.52;3.22;;;12.30;99.90;;;;;;5051799;28;20040;-87
2023/10/28 09:12:52;;;;;;;10.75;3.10;;;12.40;99.90;;;;;;5053543;28;20079;-87
2023/10/28 09:15:20;;;;;;;14.45;3.42;;;12.40;99.90;;;;;;5056344;28;20013;-87
2023/10/28 09:17:45;;;;;;;8.27;2.95;;;12.40;99.90;;;;;;5061584;28;20036;-87
2023/10/28 09:20:11;;;;;;;9.23;2.78;;;12.50;99.90;;;;;;5060388;28;20392;-87
2023/10/28 09:22:46;;;;;;;11.02;3.00;;;12.50;99.90;;;;;;5057737;28;20017;-86
2023/10/28 09:25:15;;;;;;;10.18;2.38;;;12.60;99.90;;;;;;5058905;28;20496;-86
2023/10/28 09:27:42;;;;;;;9.80;2.60;;;12.50;99.90;;;;;;5062490;28;20471;-88
2023/10/28 09:30:13;;;;;;;9.20;2.55;;;12.60;99.90;;;;;;5048427;28;20053;-87
2023/10/28 09:32:38;;;;;;;;;;;12.50;99.90;;;;;;5052025;28;20481;-88
2023/10/28 09:35:06;;;;;;;12.45;3.58;;;12.60;99.90;;;;;;5052742;28;19987;-87
2023/10/28 09:37:41;;;;;;;8.70;2.90;;;12.50;99.90;;;;;;5048169;28;20045;-87
2023/10/28 09:40:09;;;;;;;8.30;2.72;;;13.90;99.90;;;;;;5040148;28;20609;-88
2023/10/28 09:42:37;;;;;;;9.30;3.15;;;12.60;99.90;;;;;;5049019;28;20034;-87
2023/10/28 09:45:08;;;;;;;7.65;3.30;;;12.60;99.90;;;;;;5044516;28;20104;-89
2023/10/28 09:48:00;;;;;;;11.13;2.95;;;12.60;99.90;;;;;;5040379;28;20086;-89
2023/10/28 09:50:28;;;;;;;5.28;2.38;;;12.60;99.90;;;;;;5042281;28;20108;-88
2023/10/28 09:52:56;;;;;;;9.70;2.72;;;12.60;99.90;;;;;;5046209;28;20488;-88
2023/10/28 09:55:34;;;;;;;5.32;2.53;;;12.70;99.90;;;;;;5051681;28;20025;-89
2023/10/28 09:58:22;;;;;;;10.10;2.85;;;12.60;99.90;;;;;;5041917;28;20040;-87
2023/10/28 10:00:53;;;;;;;7.70;2.50;;;12.60;99.90;;;;;;5039983;28;20056;-88
2023/10/28 10:03:36;;;;;;;6.90;2.38;;;12.60;99.90;;;;;;5042669;28;20503;-88
2023/10/28 10:06:03;;;;;;;5.68;2.65;;;12.60;99.90;;;;;;5049070;28;20124;-89
2023/10/28 10:08:28;;;;;;;10.05;2.72;;;12.60;99.90;;;;;;5045108;28;20501;-83
2023/10/28 10:10:57;;;;;;;9.88;3.17;;;12.90;99.90;;;;;;5047997;28;20055;-87
2023/10/28 10:13:23;;;;;;;4.78;2.08;;;12.60;99.90;;;;;;5048468;28;20168;-87
2023/10/28 10:15:59;;;;;;;6.80;2.55;;;12.70;99.90;;;;;;5044501;28;20467;-89
2023/10/28 10:18:45;;;;;;;11.15;2.58;;;12.70;99.90;;;;;;5049816;28;20036;-89
2023/10/28 10:21:12;;;;;;;7.78;2.83;;;12.70;99.90;;;;;;5051959;28;20025;-89
2023/10/28 10:23:43;;;;;;;4.88;2.10;;;12.70;99.90;;;;;;5046026;28;20085;-88
2023/10/28 10:26:29;;;;;;;;;;;12.70;99.90;;;;;;5046548;28;20017;-88
2023/10/28 10:28:56;;;;;;;4.97;1.90;;;12.70;99.90;;;;;;5042330;28;19912;-87
2023/10/28 10:31:31;;;;;;;6.88;2.13;;;12.90;99.90;;;;;;5048763;28;20101;-88
2023/10/28 10:34:05;;;;;;;10.60;2.55;;;12.70;99.90;;;;;;5050353;28;20040;-88
2023/10/28 10:36:41;;;;;;;5.93;2.30;;;12.70;99.90;;;;;;5055493;28;20112;-87
2023/10/28 10:39:15;;;;;;;10.02;2.95;;;12.80;99.90;;;;;;5052796;28;20053;-89
2023/10/28 10:41:42;;;;;;;4.82;1.95;;;12.70;99.90;;;;;;5055222;28;20033;-87
2023/10/28 10:44:37;;;;;;;6.43;3.00;;;12.80;99.90;;;;;;5054319;28;20090;-89
2023/10/28 10:47:08;;;;;;;5.43;2.20;;;12.80;99.90;;;;;;5050416;28;20100;-88
2023/10/28 10:49:36;;;;;;;7.20;2.63;;;12.80;99.90;;;;;;5036291;28;20091;-86
2023/10/28 10:52:03;;;;;;;12.15;2.63;;;12.80;99.90;;;;;;5054960;28;20105;-90
2023/10/28 10:54:38;;;;;;;13.25;2.92;;;12.90;99.90;;;;;;5048017;28;20037;-86
2023/10/28 10:57:07;;;;;;;9.55;2.78;;;12.90;99.90;;;;;;5036991;28;20025;-89
2023/10/28 10:59:35;;;;;;;10.85;2.78;;;13.00;99.90;;;;;;5054685;28;20028;-87
2023/10/28 11:02:02;;;;;;;5.28;2.03;;;13.00;99.90;;;;;;5048568;28;20025;-87
2023/10/28 11:04:34;;;;;;;7.28;2.40;;;13.10;99.90;;;;;;5025657;28;20152;-88
2023/10/28 11:07:01;;;;;;;9.23;2.47;;;13.10;99.90;;;;;;5050487;28;20040;-86
2023/10/28 11:09:26;;;;;;;8.55;2.85;;;13.10;99.90;;;;;;5035550;28;20045;-87
2023/10/28 11:11:53;;;;;;;4.85;2.53;;;13.10;99.90;;;;;;5033682;28;20525;-87
2023/10/28 11:14:18;;;;;;;8.73;2.70;;;13.10;99.90;;;;;;5051929;28;20044;-88
2023/10/28 11:16:44;;;;;;;11.70;3.03;;;13.20;99.90;;;;;;5041164;28;20022;-87
2023/10/28 11:19:11;;;;;;;9.73;2.65;;;13.00;99.90;;;;;;5040154;28;20120;-86
2023/10/28 11:21:39;;;;;;;9.18;2.25;;;13.20;99.90;;;;;;5040977;28;20012;-89
2023/10/28 11:24:07;;;;;;;6.60;2.10;;;13.20;99.90;;;;;;5054584;28;20021;-88
2023/10/28 11:26:34;;;;;;;10.75;2.30;;;13.20;99.90;;;;;;5054216;28;20025;-88
2023/10/28 11:29:00;;;;;;;6.30;2.40;;;13.20;99.90;;;;;;5061470;28;20029;-89
2023/10/28 11:31:29;;;;;;;9.52;2.40;;;13.20;99.90;;;;;;5052139;28;20025;-88
2023/10/28 11:33:57;;;;;;;9.63;2.45;;;14.10;99.90;;;;;;5059668;28;20037;-87
2023/10/28 11:36:23;;;;;;;6.93;2.30;;;13.20;99.90;;;;;;5056525;28;20041;-89
2023/10/28 11:38:49;;;;;;;10.43;2.50;;;13.10;99.90;;;;;;5059438;28;20139;-88
2023/10/28 11:41:16;;;;;;;5.70;2.53;;;13.20;99.90;;;;;;5057599;28;20073;-90
2023/10/28 11:43:42;;;;;;;10.30;3.33;;;13.30;99.90;;;;;;5061614;28;20059;-89
2023/10/28 11:46:07;;;;;;;10.52;2.90;;;13.20;99.90;;;;;;5063759;28;20385;-89
2023/10/28 11:48:33;;;;;;;14.48;2.42;;;13.30;99.90;;;;;;5064798;28;20025;-89
2023/10/28 11:51:00;;;;;;;15.20;3.67;;;13.30;99.90;;;;;;5064263;28;20031;-90
2023/10/28 11:53:27;;;;;;;12.35;2.50;;;13.40;99.90;;;;;;5058200;28;20032;-91
2023/10/28 11:55:54;;;;;;;12.45;2.80;;;13.40;99.90;;;;;;5059886;28;20049;-89
2023/10/28 11:58:20;;;;;;;13.02;2.75;;;13.50;99.90;;;;;;5051806;28;20419;-90
2023/10/28 12:00:50;;;;;;;13.20;3.15;;;13.50;99.90;;;;;;5054686;28;20055;-91
2023/10/28 12:03:19;;;;;;;11.10;2.53;;;13.50;99.90;;;;;;5056112;28;20029;-82
2023/10/28 12:05:45;;;;;;;12.18;3.00;;;13.70;99.90;;;;;;5051880;28;20029;-92
2023/10/28 12:08:13;;;;;;;13.15;3.45;;;13.60;99.90;;;;;;5059038;28;20028;-93
2023/10/28 12:10:46;;;;;;;15.95;3.78;;;13.60;99.90;;;;;;5054759;28;20021;-88
2023/10/28 12:13:17;;;;;;;14.00;2.78;;;13.70;99.90;;;;;;5055537;28;20061;-92
2023/10/28 12:15:44;;;;;;;12.95;3.05;;;14.40;99.90;;;;;;5055779;28;20080;-93
2023/10/28 12:18:09;;;;;;;9.60;2.25;;;14.20;99.90;;;;;;5056077;28;20025;-91
2023/10/28 12:20:35;;;;;;;12.55;3.08;;;13.70;99.90;;;;;;5042085;28;20056;-87
2023/10/28 12:23:02;;;;;;;11.63;3.55;;;14.30;99.90;;;;;;5056452;28;20033;-87
2023/10/28 12:25:28;;;;;;;12.05;3.10;;;13.60;99.90;;;;;;5049579;28;20746;-87
2023/10/28 12:28:03;;;;;;;11.88;2.95;;;13.70;99.90;;;;;;5058712;28;20111;-91
2023/10/28 12:30:29;;;;;;;15.02;3.80;;;13.70;99.90;;;;;;5058445;28;20044;-91
2023/10/28 12:33:00;;;;;;;18.90;4.53;;;15.20;99.90;;;;;;5052375;28;20052;-88
2023/10/28 12:35:51;;;;;;;10.80;2.90;;;14.10;99.90;;;;;;5054308;28;20066;-85
2023/10/28 12:38:16;;;;;;;15.77;3.65;;;13.30;99.90;;;;;;5051461;28;20025;-86
2023/10/28 12:41:00;;;;;;;16.58;4.28;;;13.30;99.90;;;;;;5050347;28;20048;-87
2023/10/28 12:43:27;;;;;;;18.45;3.75;;;14.90;99.90;;;;;;5049805;28;20495;-86